createdAt,value
2018-03-24T00:00:24.165Z,95.65
2018-03-24T00:02:51.573Z,86.37
2018-03-24T00:05:18.996Z,83.95
2018-03-24T00:07:46.396Z,84.80
2018-03-24T00:10:13.805Z,78.15
2018-03-24T00:12:41.226Z,78.68
2018-03-24T00:15:08.636Z,76.60
2018-03-24T00:17:36.040Z,91.05
2018-03-24T00:20:03.458Z,88.53
2018-03-24T00:22:30.856Z,80.97
2018-03-24T00:24:58.264Z,87.70
2018-03-24T00:27:26.039Z,85.18
2018-03-24T00:29:53.428Z,96.05
2018-03-24T00:32:20.836Z,87.25
2018-03-24T00:34:48.253Z,83.97
2018-03-24T00:37:15.651Z,91.70
2018-03-24T00:39:43.064Z,89.25
2018-03-24T00:42:10.485Z,88.43
2018-03-24T00:44:37.888Z,99.18
2018-03-24T00:47:05.299Z,95.55
2018-03-24T00:49:32.716Z,99.93
2018-03-24T00:52:00.116Z,94.45
2018-03-24T00:54:27.511Z,96.12
2018-03-24T00:56:54.932Z,107.15
2018-03-24T00:59:22.338Z,98.47
2018-03-24T01:01:49.741Z,106.18
2018-03-24T01:04:17.164Z,110.60
2018-03-24T01:06:44.572Z,101.55
2018-03-24T01:09:11.985Z,106.75
2018-03-24T01:11:39.410Z,122.40
2018-03-24T01:14:06.812Z,113.35
2018-03-24T01:16:34.221Z,114.03
2018-03-24T01:19:01.648Z,113.10
2018-03-24T01:21:29.051Z,117.68
2018-03-24T01:23:56.461Z,129.45
2018-03-24T01:26:23.882Z,125.97
2018-03-24T01:28:51.288Z,121.87
2018-03-24T01:31:18.700Z,120.62
2018-03-24T01:33:46.128Z,125.38
2018-03-24T01:36:13.535Z,114.15
2018-03-24T01:38:40.944Z,122.53
2018-03-24T01:41:08.372Z,111.10
2018-03-24T01:43:35.787Z,118.22
2018-03-24T01:46:03.194Z,122.55
2018-03-24T01:48:30.620Z,115.37
2018-03-24T01:50:58.023Z,132.35
2018-03-24T01:53:32.075Z,137.57
2018-03-24T01:55:59.488Z,146.85
2018-03-24T01:58:26.894Z,144.05
2018-03-24T02:00:54.316Z,143.13
2018-03-24T02:03:21.724Z,149.82
2018-03-24T02:05:49.128Z,158.70
2018-03-24T02:08:16.548Z,159.75
2018-03-24T02:10:43.964Z,150.07
2018-03-24T02:13:11.384Z,161.45
2018-03-24T02:15:38.794Z,164.32
2018-03-24T02:18:06.198Z,202.38
2018-03-24T02:20:33.625Z,159.00
2018-03-24T02:23:01.032Z,159.00
2018-03-24T02:25:28.460Z,165.50
2018-03-24T02:27:55.867Z,143.50
2018-03-24T02:30:23.277Z,166.60
2018-03-24T02:32:50.701Z,142.60
2018-03-24T02:35:18.108Z,145.77
2018-03-24T02:37:45.524Z,140.35
2018-03-24T02:40:12.925Z,147.18
2018-03-24T02:42:40.342Z,134.05
2018-03-24T02:45:07.752Z,124.43
2018-03-24T02:47:35.356Z,148.87
2018-03-24T02:50:02.774Z,123.95
2018-03-24T02:52:30.176Z,152.20
2018-03-24T02:54:57.586Z,142.32
2018-03-24T02:57:25.014Z,152.57
2018-03-24T02:59:52.416Z,149.82
2018-03-24T03:02:19.840Z,136.57
2018-03-24T03:04:47.253Z,147.87
2018-03-24T03:07:14.667Z,135.10
2018-03-24T03:09:42.091Z,141.82
2018-03-24T03:12:09.493Z,142.93
2018-03-24T03:14:36.929Z,125.22
2018-03-24T03:17:04.400Z,137.55
2018-03-24T03:19:31.792Z,147.30
2018-03-24T03:21:59.208Z,148.23
2018-03-24T03:24:26.616Z,141.80
2018-03-24T03:26:54.042Z,138.75
2018-03-24T03:29:21.440Z,158.48
2018-03-24T03:31:49.310Z,155.10
2018-03-24T03:34:16.732Z,161.73
2018-03-24T03:36:44.136Z,172.07
2018-03-24T03:39:11.560Z,168.32
2018-03-24T03:41:38.963Z,163.52
2018-03-24T03:44:06.370Z,150.25
2018-03-24T03:46:33.789Z,170.43
2018-03-24T03:49:01.188Z,162.52
2018-03-24T03:51:28.612Z,175.02
2018-03-24T03:53:56.013Z,165.50
2018-03-24T03:56:23.420Z,158.63
2018-03-24T03:58:50.837Z,157.37
2018-03-24T04:01:18.245Z,149.10
2018-03-24T04:03:45.659Z,164.07
2018-03-24T04:06:13.068Z,146.45
2018-03-24T04:08:40.470Z,154.32
2018-03-24T04:11:07.884Z,157.43
2018-03-24T04:13:35.284Z,152.30
2018-03-24T04:16:02.744Z,158.52
2018-03-24T04:18:30.136Z,163.35
2018-03-24T04:20:57.548Z,129.43
2018-03-24T04:23:24.952Z,149.43
2018-03-24T04:25:52.361Z,159.18
2018-03-24T04:28:19.771Z,152.80
2018-03-24T04:30:47.180Z,156.85
2018-03-24T04:33:14.576Z,143.27
2018-03-24T04:35:41.991Z,148.20
2018-03-24T04:38:09.397Z,176.02
2018-03-24T04:40:36.832Z,154.05
2018-03-24T04:43:04.232Z,152.02
2018-03-24T04:45:31.643Z,164.82
2018-03-24T04:47:59.058Z,142.15
2018-03-24T04:50:26.466Z,160.88
2018-03-24T04:52:53.880Z,154.32
2018-03-24T04:55:21.283Z,148.45
2018-03-24T04:57:48.683Z,150.20
2018-03-24T05:00:16.112Z,154.60
2018-03-24T05:02:43.515Z,162.85
2018-03-24T05:05:10.936Z,153.00
2018-03-24T05:07:38.337Z,151.10
2018-03-24T05:10:05.740Z,155.60
2018-03-24T05:12:33.155Z,141.98
2018-03-24T05:15:00.556Z,150.35
2018-03-24T05:17:27.972Z,162.80
2018-03-24T05:19:55.380Z,157.07
2018-03-24T05:22:22.777Z,163.37
2018-03-24T05:24:50.231Z,166.10
2018-03-24T05:27:17.590Z,163.35
2018-03-24T05:29:45.003Z,165.93
2018-03-24T05:32:12.433Z,137.88
2018-03-24T05:34:39.832Z,156.07
2018-03-24T05:37:07.248Z,159.70
2018-03-24T05:39:34.643Z,155.52
2018-03-24T05:42:02.060Z,160.73
2018-03-24T05:44:29.463Z,159.90
2018-03-24T05:46:56.855Z,148.25
2018-03-24T05:49:24.264Z,155.12
2018-03-24T05:51:52.484Z,147.48
2018-03-24T05:54:19.905Z,152.90
2018-03-24T05:56:47.304Z,168.60
2018-03-24T05:59:14.703Z,155.50
2018-03-24T06:01:42.192Z,154.55
2018-03-24T06:04:09.575Z,148.40
2018-03-24T06:06:36.993Z,154.23
2018-03-24T06:09:04.392Z,161.90
2018-03-24T06:11:31.797Z,159.85
2018-03-24T06:13:59.203Z,150.00
2018-03-24T06:16:26.605Z,148.48
2018-03-24T06:18:54.024Z,142.18
2018-03-24T06:21:21.420Z,138.32
2018-03-24T06:23:48.815Z,137.77
2018-03-24T06:26:16.230Z,133.07
2018-03-24T06:28:43.630Z,141.40
2018-03-24T06:31:11.050Z,141.00
2018-03-24T06:33:38.449Z,141.18
2018-03-24T06:36:08.358Z,128.18
2018-03-24T06:38:35.774Z,151.15
2018-03-24T06:41:03.169Z,145.68
2018-03-24T06:43:30.584Z,146.70
2018-03-24T06:45:57.985Z,141.40
2018-03-24T06:48:25.386Z,136.55
2018-03-24T06:50:52.796Z,137.32
2018-03-24T06:53:20.200Z,142.40
2018-03-24T06:55:47.616Z,154.63
2018-03-24T06:58:15.021Z,141.57
2018-03-24T07:00:42.417Z,130.57
2018-03-24T07:03:09.825Z,130.20
2018-03-24T07:05:37.224Z,141.75
2018-03-24T07:08:04.645Z,133.00
2018-03-24T07:10:32.053Z,135.43
2018-03-24T07:12:59.456Z,131.37
2018-03-24T07:20:10.592Z,135.52
2018-03-24T07:22:37.997Z,138.50
2018-03-24T07:25:05.396Z,149.93
2018-03-24T07:27:32.811Z,142.07
2018-03-24T07:30:00.217Z,146.80
2018-03-24T07:32:27.636Z,134.10
2018-03-24T07:34:55.040Z,142.68
2018-03-24T07:37:22.447Z,134.27
2018-03-24T07:39:49.869Z,145.77
2018-03-24T07:42:17.282Z,126.50
2018-03-24T07:44:44.691Z,135.00
2018-03-24T07:47:12.096Z,129.20
2018-03-24T07:49:39.503Z,144.68
2018-03-24T07:52:06.918Z,130.37
2018-03-24T07:54:34.320Z,135.50
2018-03-24T07:57:01.786Z,116.62
2018-03-24T07:59:29.153Z,129.87
2018-03-24T08:01:56.555Z,140.45
2018-03-24T08:04:23.967Z,118.70
2018-03-24T08:06:51.379Z,129.85
2018-03-24T08:09:18.799Z,135.98
2018-03-24T08:11:46.208Z,129.38
2018-03-24T08:14:13.620Z,125.57
2018-03-24T08:16:41.048Z,121.55
2018-03-24T08:19:08.461Z,121.05
2018-03-24T08:21:35.880Z,121.95
2018-03-24T08:24:03.287Z,109.20
2018-03-24T08:26:30.696Z,133.05
2018-03-24T08:28:58.113Z,110.25
2018-03-24T08:31:25.523Z,113.75
2018-03-24T08:33:53.277Z,118.85
2018-03-24T08:36:20.685Z,108.40
2018-03-24T08:38:48.091Z,114.93
2018-03-24T08:41:15.521Z,99.82
2018-03-24T08:43:42.927Z,95.72
2018-03-24T08:46:10.499Z,74.05
2018-03-24T08:48:37.904Z,79.37
2018-03-24T08:51:05.307Z,64.75
2018-03-24T08:53:32.712Z,68.80
2018-03-24T08:56:00.119Z,69.60
2018-03-24T08:58:27.528Z,78.43
2018-03-24T09:00:54.928Z,61.73
2018-03-24T09:03:22.321Z,65.40
2018-03-24T09:05:49.724Z,67.43
2018-03-24T09:08:17.132Z,65.05
2018-03-24T09:10:44.540Z,59.63
2018-03-24T09:13:11.944Z,59.80
2018-03-24T09:15:39.347Z,71.47
2018-03-24T09:18:06.745Z,61.60
2018-03-24T09:20:34.140Z,45.87
2018-03-24T09:23:01.581Z,56.50
2018-03-24T09:25:28.989Z,47.83
2018-03-24T09:27:56.397Z,51.60
2018-03-24T09:30:23.788Z,52.03
2018-03-24T09:32:51.186Z,48.03
2018-03-24T09:35:18.593Z,51.47
2018-03-24T09:37:45.981Z,49.50
2018-03-24T09:40:13.376Z,51.00
2018-03-24T09:42:40.780Z,43.20
2018-03-24T09:45:08.176Z,38.43
2018-03-24T09:47:35.588Z,33.53
2018-03-24T09:50:02.985Z,32.97
2018-03-24T09:52:30.371Z,30.47
2018-03-24T09:54:57.796Z,34.63
2018-03-24T09:57:25.183Z,32.70
2018-03-24T09:59:52.597Z,26.57
2018-03-24T10:02:19.997Z,28.40
2018-03-24T10:04:47.388Z,28.63
2018-03-24T10:07:14.796Z,29.47
2018-03-24T10:09:42.195Z,26.07
2018-03-24T10:12:09.644Z,24.93
2018-03-24T10:14:37.023Z,25.40
2018-03-24T10:17:04.420Z,24.83
2018-03-24T10:19:31.826Z,27.20
2018-03-24T10:22:02.704Z,27.03
2018-03-24T10:24:30.134Z,29.17
2018-03-24T10:26:57.519Z,30.47
2018-03-24T10:29:24.928Z,27.90
2018-03-24T10:31:52.320Z,33.03
2018-03-24T10:34:19.707Z,30.93
2018-03-24T10:36:47.116Z,33.63
2018-03-24T10:39:14.509Z,32.10
2018-03-24T10:41:41.900Z,38.60
2018-03-24T10:44:09.309Z,31.13
2018-03-24T10:46:36.700Z,34.10
2018-03-24T10:49:04.108Z,35.73
2018-03-24T10:51:31.519Z,33.37
2018-03-24T10:53:58.921Z,31.17
2018-03-24T10:56:26.333Z,33.23
2018-03-24T10:58:53.752Z,33.93
2018-03-24T11:01:25.501Z,32.13
2018-03-24T11:03:52.925Z,31.13
2018-03-24T11:06:20.315Z,37.10
2018-03-24T11:08:47.711Z,28.23
2018-03-24T11:11:15.164Z,27.70
2018-03-24T11:13:42.516Z,35.53
2018-03-24T11:16:09.918Z,29.40
2018-03-24T11:18:37.328Z,29.80
2018-03-24T11:21:04.724Z,29.63
2018-03-24T11:23:32.119Z,31.60
2018-03-24T11:25:59.533Z,27.53
2018-03-24T11:28:26.937Z,31.10
2018-03-24T11:30:54.331Z,28.67
2018-03-24T11:33:21.764Z,33.07
2018-03-24T11:35:49.160Z,29.87
2018-03-24T11:38:16.570Z,27.73
2018-03-24T11:40:43.972Z,29.60
2018-03-24T11:43:11.369Z,34.33
2018-03-24T11:45:38.809Z,27.80
2018-03-24T11:48:06.192Z,29.93
2018-03-24T11:50:33.595Z,29.23
2018-03-24T11:53:00.992Z,30.23
2018-03-24T11:55:28.391Z,35.83
2018-03-24T11:57:55.796Z,31.27
2018-03-24T12:00:23.199Z,29.63
2018-03-24T12:02:50.612Z,28.43
2018-03-24T12:05:18.016Z,31.40
2018-03-24T12:07:45.416Z,27.00
2018-03-24T12:10:12.828Z,31.60
2018-03-24T12:12:40.224Z,28.67
2018-03-24T12:15:07.641Z,29.53
2018-03-24T12:17:35.036Z,30.33
2018-03-24T12:20:02.440Z,29.13
2018-03-24T12:22:29.857Z,30.97
2018-03-24T12:24:57.294Z,34.70
2018-03-24T12:27:24.700Z,28.67
2018-03-24T12:29:52.100Z,29.77
2018-03-24T12:32:19.496Z,29.37
2018-03-24T12:34:46.908Z,34.20
2018-03-24T12:37:14.308Z,31.03
2018-03-24T12:39:41.720Z,30.67
2018-03-24T12:42:09.118Z,30.23
2018-03-24T12:44:36.520Z,32.30
2018-03-24T12:47:03.928Z,27.50
2018-03-24T12:49:31.329Z,25.83
2018-03-24T12:51:58.732Z,30.33
2018-03-24T12:54:26.134Z,31.57
2018-03-24T12:56:53.535Z,28.07
2018-03-24T12:59:20.949Z,26.23
2018-03-24T13:01:48.348Z,26.70
2018-03-24T13:04:15.761Z,30.70
2018-03-24T13:06:43.160Z,31.90
2018-03-24T13:09:10.559Z,29.47
2018-03-24T13:11:37.965Z,25.30
2018-03-24T13:14:05.433Z,31.40
2018-03-24T13:16:32.848Z,30.03
2018-03-24T13:19:00.257Z,28.53
2018-03-24T13:21:27.651Z,29.77
2018-03-24T13:23:55.060Z,30.90
2018-03-24T13:26:22.460Z,30.50
2018-03-24T13:28:49.871Z,25.13
2018-03-24T13:31:17.264Z,29.47
2018-03-24T13:33:44.667Z,28.83
2018-03-24T13:36:12.077Z,29.73
2018-03-24T13:38:39.512Z,28.13
2018-03-24T13:41:06.900Z,27.77
2018-03-24T13:43:34.295Z,29.00
2018-03-24T13:46:01.706Z,30.53
2018-03-24T13:48:29.100Z,26.73
2018-03-24T13:50:56.496Z,27.83
2018-03-24T13:53:23.908Z,31.43
2018-03-24T13:55:51.312Z,28.60
2018-03-24T13:58:18.708Z,35.17
2018-03-24T14:00:46.123Z,32.10
2018-03-24T14:03:13.528Z,32.00
2018-03-24T14:05:40.992Z,28.60
2018-03-24T14:08:08.392Z,25.40
2018-03-24T14:10:35.787Z,30.43
2018-03-24T14:13:03.200Z,28.67
2018-03-24T14:15:30.600Z,24.00
2018-03-24T14:17:58.013Z,26.27
2018-03-24T14:20:25.424Z,27.80
2018-03-24T14:22:52.819Z,33.97
2018-03-24T14:25:20.228Z,26.97
2018-03-24T14:27:47.623Z,27.77
2018-03-24T14:30:15.032Z,30.23
2018-03-24T14:32:42.438Z,30.53
2018-03-24T14:35:09.833Z,31.67
2018-03-24T14:37:37.250Z,30.93
2018-03-24T14:40:04.640Z,30.03
2018-03-24T14:42:32.059Z,28.57
2018-03-24T14:44:59.455Z,28.00
2018-03-24T14:47:26.860Z,31.93
2018-03-24T14:49:54.269Z,32.33
2018-03-24T14:52:21.659Z,34.17
2018-03-24T14:54:49.083Z,32.30
2018-03-24T14:57:16.484Z,34.97
2018-03-24T14:59:43.880Z,33.33
2018-03-24T15:02:11.300Z,31.20
2018-03-24T15:04:38.700Z,38.00
2018-03-24T15:07:06.116Z,37.77
2018-03-24T15:09:33.514Z,36.67
2018-03-24T15:12:00.912Z,39.73
2018-03-24T15:14:28.328Z,34.27
2018-03-24T15:16:55.724Z,33.47
2018-03-24T15:19:23.140Z,30.77
2018-03-24T15:21:50.536Z,34.30
2018-03-24T15:24:17.927Z,33.67
2018-03-24T15:26:45.340Z,39.60
2018-03-24T15:29:24.355Z,36.20
2018-03-24T15:32:03.752Z,39.13
2018-03-24T15:34:42.794Z,43.17
2018-03-24T15:37:10.196Z,47.23
2018-03-24T15:39:37.600Z,42.37
2018-03-24T15:42:05.028Z,39.97
2018-03-24T15:44:32.428Z,41.90
2018-03-24T15:47:00.826Z,41.23
2018-03-24T15:49:28.228Z,44.90
2018-03-24T15:51:55.624Z,40.97
2018-03-24T15:54:23.038Z,40.77
2018-03-24T15:56:50.436Z,47.50
2018-03-24T15:59:17.832Z,39.40
2018-03-24T16:01:45.235Z,44.73
2018-03-24T16:04:12.636Z,39.90
2018-03-24T16:06:40.052Z,42.57
2018-03-24T16:09:07.443Z,43.40
2018-03-24T16:11:34.844Z,39.40
2018-03-24T16:14:02.256Z,41.30
2018-03-24T16:16:29.648Z,41.93
2018-03-24T16:18:57.059Z,38.77
2018-03-24T16:21:24.485Z,41.83
2018-03-24T16:23:51.860Z,40.43
2018-03-24T16:26:19.308Z,44.10
2018-03-24T16:28:46.693Z,42.37
2018-03-24T16:31:14.113Z,46.63
2018-03-24T16:33:41.520Z,44.30
2018-03-24T16:36:08.939Z,39.73
2018-03-24T16:38:36.344Z,38.40
2018-03-24T16:41:03.745Z,38.97
2018-03-24T16:43:31.155Z,42.93
2018-03-24T16:45:59.454Z,38.50
2018-03-24T16:48:26.851Z,37.97
2018-03-24T16:50:54.261Z,37.87
2018-03-24T16:53:21.661Z,39.43
2018-03-24T16:55:49.266Z,36.73
2018-03-24T16:58:16.687Z,37.93
2018-03-24T17:00:44.087Z,46.83
2018-03-24T17:03:11.496Z,40.43
2018-03-24T17:05:38.902Z,42.03
2018-03-24T17:08:06.328Z,37.13
2018-03-24T17:10:33.720Z,46.30
2018-03-24T17:13:01.116Z,38.77
2018-03-24T17:15:28.520Z,42.60
2018-03-24T17:17:55.919Z,40.53
2018-03-24T17:20:23.333Z,42.43
2018-03-24T17:22:50.732Z,46.87
2018-03-24T17:25:18.129Z,42.43
2018-03-24T17:27:45.532Z,39.60
2018-03-24T17:30:12.924Z,38.40
2018-03-24T17:32:40.332Z,39.67
2018-03-24T17:35:07.737Z,43.90
2018-03-24T17:37:35.133Z,38.07
2018-03-24T17:40:02.543Z,42.30
2018-03-24T17:42:29.943Z,38.53
2018-03-24T17:44:57.356Z,41.73
2018-03-24T17:47:24.760Z,40.53
2018-03-24T17:49:52.192Z,46.93
2018-03-24T17:52:19.599Z,38.20
2018-03-24T17:54:46.992Z,42.20
2018-03-24T17:57:14.396Z,41.87
2018-03-24T17:59:41.792Z,47.50
2018-03-24T18:02:09.188Z,44.30
2018-03-24T18:04:36.597Z,43.10
2018-03-24T18:07:03.992Z,39.47
2018-03-24T18:09:31.400Z,50.23
2018-03-24T18:11:58.792Z,48.90
2018-03-24T18:14:26.187Z,53.03
2018-03-24T18:16:53.587Z,52.47
2018-03-24T18:19:20.984Z,46.53
2018-03-24T18:21:48.396Z,53.20
2018-03-24T18:24:15.796Z,56.70
2018-03-24T18:26:43.188Z,61.73
2018-03-24T18:29:10.588Z,50.47
2018-03-24T18:31:37.993Z,49.30
2018-03-24T18:34:05.400Z,53.43
2018-03-24T18:36:32.796Z,51.87
2018-03-24T18:39:00.188Z,52.67
2018-03-24T18:41:27.604Z,52.63
2018-03-24T18:43:55.004Z,50.23
2018-03-24T18:46:22.407Z,54.00
2018-03-24T18:48:49.803Z,50.43
2018-03-24T18:51:17.201Z,52.03
2018-03-24T18:53:44.649Z,57.93
2018-03-24T18:56:12.004Z,61.57
2018-03-24T18:58:39.419Z,55.90
2018-03-24T19:01:06.823Z,59.55
2018-03-24T19:03:34.227Z,61.85
2018-03-24T19:06:01.632Z,64.30
2018-03-24T19:08:29.016Z,60.53
2018-03-24T19:10:56.428Z,57.67
2018-03-24T19:13:23.828Z,60.63
2018-03-24T19:15:51.228Z,59.57
2018-03-24T19:18:18.633Z,59.27
2018-03-24T19:20:46.040Z,64.62
2018-03-24T19:23:13.467Z,58.70
2018-03-24T19:25:40.847Z,58.53
2018-03-24T19:28:08.247Z,67.90
2018-03-24T19:30:35.648Z,65.27
2018-03-24T19:33:03.049Z,60.17
2018-03-24T19:35:30.461Z,72.93
2018-03-24T19:37:57.871Z,62.05
2018-03-24T19:40:25.260Z,64.77
2018-03-24T19:42:52.680Z,62.33
2018-03-24T19:45:20.076Z,75.47
2018-03-24T19:47:47.480Z,69.90
2018-03-24T19:50:14.879Z,72.97
2018-03-24T19:52:42.268Z,72.77
2018-03-24T19:55:09.681Z,71.87
2018-03-24T19:57:37.083Z,61.53
2018-03-24T20:00:04.504Z,71.57
2018-03-24T20:02:31.909Z,64.12
2018-03-24T20:04:59.306Z,63.78
2018-03-24T20:07:26.724Z,67.75
2018-03-24T20:09:54.125Z,78.55
2018-03-24T20:12:21.540Z,65.10
2018-03-24T20:14:48.940Z,66.77
2018-03-24T20:17:16.348Z,66.87
2018-03-24T20:19:43.770Z,66.95
2018-03-24T20:22:11.172Z,63.78
2018-03-24T20:24:38.591Z,69.70
2018-03-24T20:27:05.992Z,67.10
2018-03-24T20:29:33.380Z,72.27
2018-03-24T20:32:00.796Z,64.20
2018-03-24T20:34:28.192Z,70.35
2018-03-24T20:36:55.623Z,70.78
2018-03-24T20:39:23.016Z,70.18
2018-03-24T20:41:50.429Z,67.78
2018-03-24T20:44:17.835Z,63.00
2018-03-24T20:46:45.244Z,67.75
2018-03-24T20:49:12.672Z,63.53
2018-03-24T20:51:40.080Z,67.40
2018-03-24T20:54:07.584Z,71.72
2018-03-24T20:56:34.988Z,66.53
2018-03-24T20:59:02.392Z,73.80
2018-03-24T21:01:29.827Z,71.62
2018-03-24T21:03:57.216Z,65.93
2018-03-24T21:06:24.616Z,67.90
2018-03-24T21:08:52.031Z,66.55
2018-03-24T21:11:19.428Z,66.37
2018-03-24T21:13:46.848Z,70.65
2018-03-24T21:16:14.254Z,82.53
2018-03-24T21:18:41.651Z,77.65
2018-03-24T21:21:09.072Z,74.37
2018-03-24T21:23:36.475Z,84.10
2018-03-24T21:26:03.896Z,79.80
2018-03-24T21:28:31.296Z,81.45
2018-03-24T21:30:58.709Z,66.50
2018-03-24T21:33:26.128Z,79.70
2018-03-24T21:35:53.532Z,83.12
2018-03-24T21:38:20.947Z,82.15
2018-03-24T21:40:48.352Z,79.00
2018-03-24T21:43:15.771Z,87.07
2018-03-24T21:45:44.389Z,78.53
2018-03-24T21:48:13.092Z,100.10
2018-03-24T21:50:40.541Z,80.82
2018-03-24T21:53:07.929Z,89.15
2018-03-24T21:55:35.328Z,78.22
2018-03-24T21:58:02.764Z,88.55
2018-03-24T22:00:30.171Z,69.72
2018-03-24T22:02:57.583Z,81.80
2018-03-24T22:05:24.984Z,75.28
2018-03-24T22:07:52.516Z,93.87
2018-03-24T22:10:19.951Z,84.32
2018-03-24T22:12:47.404Z,81.63
2018-03-24T22:15:14.820Z,95.30
2018-03-24T22:17:42.228Z,84.72
2018-03-24T22:20:09.625Z,79.57
2018-03-24T22:22:37.039Z,82.15
2018-03-24T22:25:04.446Z,86.10
2018-03-24T22:27:31.859Z,84.18
2018-03-24T22:29:59.256Z,82.85
2018-03-24T22:32:26.660Z,87.57
2018-03-24T22:34:54.076Z,100.65
2018-03-24T22:37:21.480Z,124.10
2018-03-24T22:39:48.959Z,105.32
2018-03-24T22:42:16.308Z,95.18
2018-03-24T22:44:43.715Z,93.37
2018-03-24T22:47:11.146Z,88.82
2018-03-24T22:49:38.544Z,91.30
2018-03-24T22:52:05.955Z,97.07
2018-03-24T22:54:33.361Z,87.90
2018-03-24T22:57:00.763Z,90.97
2018-03-24T22:59:28.176Z,90.05
2018-03-24T23:01:55.571Z,96.15
2018-03-24T23:04:23.008Z,116.78
2018-03-24T23:06:50.412Z,112.90
2018-03-24T23:09:17.832Z,106.10
2018-03-24T23:11:45.244Z,105.07
2018-03-24T23:14:12.644Z,97.90
2018-03-24T23:16:40.063Z,106.70
2018-03-24T23:19:07.469Z,125.12
2018-03-24T23:21:34.880Z,103.20
2018-03-24T23:24:02.297Z,110.45
2018-03-24T23:26:29.709Z,139.60
2018-03-24T23:28:57.184Z,111.43
2018-03-24T23:31:24.523Z,98.97
2018-03-24T23:33:51.940Z,92.65
2018-03-24T23:36:19.675Z,97.05
2018-03-24T23:38:47.080Z,106.68
2018-03-24T23:41:14.496Z,115.28
2018-03-24T23:43:41.898Z,108.57
2018-03-24T23:46:09.295Z,89.90
2018-03-24T23:48:36.718Z,113.75
2018-03-24T23:51:04.107Z,114.28
2018-03-24T23:53:31.520Z,113.72
2018-03-24T23:55:58.911Z,94.72
2018-03-24T23:58:26.319Z,116.78
